createdAt,value
2018-07-21T00:00:45.178Z,61.10
2018-07-21T00:03:13.668Z,61.30
2018-07-21T00:05:42.133Z,61.80
2018-07-21T00:08:10.624Z,62.40
2018-07-21T00:10:39.105Z,62.90
2018-07-21T00:13:07.652Z,63.00
2018-07-21T00:15:36.466Z,62.90
2018-07-21T00:18:05.344Z,62.80
2018-07-21T00:20:33.783Z,63.10
2018-07-21T00:23:02.294Z,63.90
2018-07-21T00:25:30.840Z,63.20
2018-07-21T00:27:59.499Z,63.10
2018-07-21T00:30:28.007Z,63.10
2018-07-21T00:32:56.523Z,63.10
2018-07-21T00:35:25.043Z,63.40
2018-07-21T00:37:53.523Z,63.30
2018-07-21T00:40:22.067Z,62.90
2018-07-21T00:42:50.575Z,62.80
2018-07-21T00:45:19.462Z,62.60
2018-07-21T00:47:47.940Z,62.70
2018-07-21T00:50:16.502Z,62.80
2018-07-21T00:52:44.961Z,62.60
2018-07-21T00:55:13.465Z,62.60
2018-07-21T00:57:41.946Z,62.60
2018-07-21T01:00:10.872Z,62.60
2018-07-21T01:02:39.328Z,62.50
2018-07-21T01:07:36.381Z,62.00
2018-07-21T01:10:06.142Z,62.50
2018-07-21T01:12:34.654Z,62.50
2018-07-21T01:15:03.589Z,62.40
2018-07-21T01:17:32.046Z,62.70
2018-07-21T01:20:00.546Z,62.80
2018-07-21T01:22:29.108Z,62.30
2018-07-21T01:24:57.639Z,62.30
2018-07-21T01:27:26.098Z,62.70
2018-07-21T01:29:54.600Z,62.70
2018-07-21T01:32:23.061Z,62.50
2018-07-21T01:34:51.591Z,62.70
2018-07-21T01:37:20.075Z,62.80
2018-07-21T01:39:48.581Z,63.40
2018-07-21T01:42:17.062Z,63.00
2018-07-21T01:44:45.624Z,63.20
2018-07-21T01:47:14.135Z,63.40
2018-07-21T01:49:42.666Z,63.60
2018-07-21T01:52:11.173Z,63.70
2018-07-21T01:54:39.691Z,63.70
2018-07-21T01:57:08.840Z,63.70
2018-07-21T01:59:37.324Z,63.70
2018-07-21T02:02:05.826Z,63.70
2018-07-21T02:04:34.388Z,64.00
2018-07-21T02:07:02.895Z,64.40
2018-07-21T02:09:31.370Z,64.50
2018-07-21T02:11:59.837Z,64.80
2018-07-21T02:14:28.341Z,64.90
2018-07-21T02:16:56.814Z,64.70
2018-07-21T02:21:53.483Z,65.20
2018-07-21T02:24:21.979Z,65.30
2018-07-21T02:26:50.460Z,65.40
2018-07-21T02:29:18.943Z,65.70
2018-07-21T02:31:47.438Z,65.80
2018-07-21T02:34:16.255Z,65.90
2018-07-21T02:36:44.752Z,65.80
2018-07-21T02:39:13.332Z,65.80
2018-07-21T02:41:41.984Z,65.80
2018-07-21T02:44:10.591Z,66.00
2018-07-21T02:46:39.030Z,65.70
2018-07-21T02:49:07.480Z,65.50
2018-07-21T02:51:35.986Z,65.60
2018-07-21T02:54:04.515Z,65.70
2018-07-21T02:56:33.024Z,65.60
2018-07-21T02:59:01.552Z,66.20
2018-07-21T03:01:30.048Z,67.10
2018-07-21T03:03:58.560Z,67.50
2018-07-21T03:06:27.063Z,67.80
2018-07-21T03:08:55.544Z,68.30
2018-07-21T03:11:23.996Z,68.50
2018-07-21T03:13:52.851Z,68.80
2018-07-21T03:16:21.316Z,68.80
2018-07-21T03:18:50.166Z,68.80
2018-07-21T03:21:18.620Z,70.30
2018-07-21T03:23:47.065Z,69.80
2018-07-21T03:26:15.591Z,70.30
2018-07-21T03:28:44.034Z,70.60
2018-07-21T03:31:12.841Z,70.70
2018-07-21T03:33:41.332Z,70.90
2018-07-21T03:36:09.814Z,71.00
2018-07-21T03:38:38.302Z,71.00
2018-07-21T03:41:06.899Z,70.90
2018-07-21T03:43:35.371Z,70.70
2018-07-21T03:46:03.849Z,70.80
2018-07-21T03:48:32.289Z,70.50
2018-07-21T03:51:00.771Z,70.60
2018-07-21T03:53:29.261Z,70.70
2018-07-21T03:55:58.202Z,70.90
2018-07-21T03:58:26.642Z,70.80
2018-07-21T04:00:55.127Z,70.50
2018-07-21T04:03:23.579Z,70.50
2018-07-21T04:05:52.104Z,70.50
2018-07-21T04:08:20.579Z,70.10
2018-07-21T04:10:49.095Z,70.30
2018-07-21T04:13:17.576Z,70.70
2018-07-21T04:15:46.088Z,70.40
2018-07-21T04:18:14.540Z,70.90
2018-07-21T04:20:43.067Z,71.10
2018-07-21T04:23:11.511Z,71.50
2018-07-21T04:25:39.982Z,71.60
2018-07-21T04:28:08.467Z,71.50
2018-07-21T04:30:36.928Z,71.40
2018-07-21T04:33:05.511Z,71.50
2018-07-21T04:35:34.627Z,71.60
2018-07-21T04:38:03.127Z,71.60
2018-07-21T04:40:31.588Z,71.60
2018-07-21T04:43:00.088Z,71.60
2018-07-21T04:45:28.583Z,71.80
2018-07-21T04:47:57.080Z,71.90
2018-07-21T04:50:25.556Z,72.20
2018-07-21T04:52:54.087Z,72.30
2018-07-21T04:55:22.573Z,72.40
2018-07-21T04:57:51.044Z,72.70
2018-07-21T05:00:19.869Z,72.70
2018-07-21T05:02:48.324Z,72.90
2018-07-21T05:05:16.824Z,72.80
2018-07-21T05:07:45.273Z,72.80
2018-07-21T05:10:13.954Z,72.70
2018-07-21T05:12:42.749Z,72.50
2018-07-21T05:15:11.769Z,72.50
2018-07-21T05:17:40.513Z,72.30
2018-07-21T05:20:09.077Z,72.40
2018-07-21T05:22:37.659Z,72.30
2018-07-21T05:25:06.396Z,72.20
2018-07-21T05:27:34.832Z,72.00
2018-07-21T05:30:03.361Z,71.60
2018-07-21T05:32:31.843Z,71.70
2018-07-21T05:35:00.658Z,71.50
2018-07-21T05:37:29.627Z,71.70
2018-07-21T05:39:58.088Z,71.40
2018-07-21T05:42:34.782Z,71.10
2018-07-21T05:45:04.404Z,70.90
2018-07-21T05:47:32.965Z,70.80
2018-07-21T05:50:01.633Z,70.90
2018-07-21T05:52:30.106Z,70.90
2018-07-21T05:54:58.583Z,71.20
2018-07-21T05:57:27.148Z,71.10
2018-07-21T05:59:55.662Z,71.60
2018-07-21T06:02:24.102Z,71.90
2018-07-21T06:04:52.567Z,71.50
2018-07-21T06:07:21.014Z,71.50
2018-07-21T06:09:49.536Z,71.40
2018-07-21T06:12:18.329Z,71.10
2018-07-21T06:14:46.783Z,71.10
2018-07-21T06:17:15.272Z,71.30
2018-07-21T06:19:43.724Z,71.60
2018-07-21T06:22:12.259Z,72.00
2018-07-21T06:24:40.756Z,72.20
2018-07-21T06:27:09.283Z,72.30
2018-07-21T06:29:37.832Z,71.80
2018-07-21T06:32:07.055Z,72.10
2018-07-21T06:34:35.512Z,72.40
2018-07-21T06:37:04.023Z,72.80
2018-07-21T06:42:00.616Z,73.20
2018-07-21T06:44:29.421Z,73.60
2018-07-21T06:46:57.919Z,73.10
2018-07-21T06:49:26.388Z,73.40
2018-07-21T06:52:04.242Z,73.30
2018-07-21T06:54:32.974Z,73.50
2018-07-21T06:57:01.603Z,73.40
2018-07-21T06:59:30.055Z,73.10
2018-07-21T07:01:58.709Z,72.80
2018-07-21T07:04:27.206Z,72.70
2018-07-21T07:06:55.635Z,72.80
2018-07-21T07:09:24.121Z,73.30
2018-07-21T07:11:55.993Z,73.50
2018-07-21T07:14:28.173Z,73.90
2018-07-21T07:16:56.610Z,74.60
2018-07-21T07:19:25.120Z,76.40
2018-07-21T07:21:54.272Z,77.10
2018-07-21T07:24:22.811Z,77.60
2018-07-21T07:26:51.255Z,79.20
2018-07-21T07:29:19.763Z,79.90
2018-07-21T07:31:48.203Z,80.20
2018-07-21T07:34:16.743Z,81.70
2018-07-21T07:36:45.275Z,81.70
2018-07-21T07:39:13.758Z,82.20
2018-07-21T07:41:42.194Z,82.40
2018-07-21T07:44:10.674Z,82.30
2018-07-21T07:46:39.614Z,82.40
2018-07-21T07:49:08.123Z,82.20
2018-07-21T07:51:36.595Z,82.30
2018-07-21T07:54:05.448Z,82.20
2018-07-21T07:56:34.256Z,82.30
2018-07-21T07:59:02.751Z,83.40
2018-07-21T08:01:31.259Z,83.10
2018-07-21T08:03:59.758Z,83.00
2018-07-21T08:06:28.645Z,82.80
2018-07-21T08:08:57.147Z,83.40
2018-07-21T08:11:25.617Z,83.40
2018-07-21T08:13:54.095Z,84.40
2018-07-21T08:16:22.544Z,85.50
2018-07-21T08:18:51.105Z,85.00
2018-07-21T08:21:19.564Z,85.90
2018-07-21T08:23:48.103Z,86.40
2018-07-21T08:26:16.704Z,87.00
2018-07-21T08:28:45.187Z,87.70
2018-07-21T08:31:13.643Z,87.80
2018-07-21T08:33:42.248Z,88.30
2018-07-21T08:36:10.729Z,88.30
2018-07-21T08:38:39.201Z,88.10
2018-07-21T08:41:09.397Z,88.00
2018-07-21T08:43:38.072Z,87.90
2018-07-21T08:46:06.576Z,88.40
2018-07-21T08:48:35.236Z,88.50
2018-07-21T08:51:03.764Z,88.60
2018-07-21T08:53:32.259Z,88.70
2018-07-21T08:56:00.801Z,88.70
2018-07-21T08:58:29.952Z,88.80
2018-07-21T09:00:58.512Z,89.40
2018-07-21T09:03:27.006Z,89.90
2018-07-21T09:05:55.491Z,90.10
2018-07-21T09:08:23.932Z,90.30
2018-07-21T09:10:52.418Z,90.70
2018-07-21T09:13:20.864Z,91.00
2018-07-21T09:15:49.741Z,91.10
2018-07-21T09:18:18.208Z,91.00
2018-07-21T09:20:46.680Z,91.20
2018-07-21T09:23:15.121Z,91.40
2018-07-21T09:25:44.002Z,91.40
2018-07-21T09:28:12.552Z,91.60
2018-07-21T09:30:41.231Z,91.20
2018-07-21T09:33:09.743Z,91.50
2018-07-21T09:35:38.294Z,91.60
2018-07-21T09:38:06.816Z,91.70
2018-07-21T09:40:35.339Z,91.60
2018-07-21T09:43:03.796Z,91.30
2018-07-21T09:45:32.284Z,91.80
2018-07-21T09:48:01.119Z,91.70
2018-07-21T09:50:29.607Z,91.60
2018-07-21T09:52:58.107Z,91.60
2018-07-21T09:55:26.643Z,91.60
2018-07-21T09:57:55.121Z,91.70
2018-07-21T10:00:28.964Z,91.60
2018-07-21T10:02:57.814Z,91.50
2018-07-21T10:05:26.666Z,91.40
2018-07-21T10:07:55.332Z,91.30
2018-07-21T10:10:23.829Z,91.30
2018-07-21T10:12:52.338Z,91.50
2018-07-21T10:15:20.829Z,91.20
2018-07-21T10:17:49.492Z,91.30
2018-07-21T10:20:17.961Z,91.20
2018-07-21T10:22:46.771Z,91.40
2018-07-21T10:25:22.206Z,91.40
2018-07-21T10:27:54.367Z,91.40
2018-07-21T10:30:22.942Z,91.50
2018-07-21T10:35:19.633Z,91.10
2018-07-21T10:37:48.098Z,91.10
2018-07-21T10:40:16.664Z,91.20
2018-07-21T10:42:45.288Z,91.20
2018-07-21T10:45:14.118Z,91.20
2018-07-21T10:47:42.604Z,91.20
2018-07-21T10:50:11.144Z,91.20
2018-07-21T10:52:39.626Z,90.70
2018-07-21T10:55:08.131Z,90.60
2018-07-21T10:57:36.572Z,90.70
2018-07-21T11:00:05.595Z,90.50
2018-07-21T11:02:34.088Z,90.50
2018-07-21T11:05:02.581Z,90.60
2018-07-21T11:07:31.042Z,90.40
2018-07-21T11:09:59.472Z,90.60
2018-07-21T11:12:27.963Z,90.70
2018-07-21T11:14:56.429Z,90.40
2018-07-21T11:17:24.914Z,90.60
2018-07-21T11:19:53.419Z,90.60
2018-07-21T11:22:21.907Z,90.80
2018-07-21T11:24:50.377Z,90.60
2018-07-21T11:27:18.854Z,90.70
2018-07-21T11:29:47.325Z,90.90
2018-07-21T11:32:15.824Z,91.00
2018-07-21T11:34:44.318Z,90.70
2018-07-21T11:37:12.812Z,90.40
2018-07-21T11:39:41.282Z,90.50
2018-07-21T11:42:10.044Z,90.20
2018-07-21T11:44:38.614Z,90.30
2018-07-21T11:47:07.403Z,90.40
2018-07-21T11:49:36.230Z,90.60
2018-07-21T11:52:04.807Z,90.60
2018-07-21T11:54:33.291Z,90.50
2018-07-21T11:57:02.779Z,90.70
2018-07-21T11:59:32.324Z,90.80
2018-07-21T12:02:01.203Z,90.60
2018-07-21T12:04:31.211Z,90.60
2018-07-21T12:06:59.808Z,90.70
2018-07-21T12:11:56.407Z,90.50
2018-07-21T12:14:24.904Z,90.40
2018-07-21T12:16:53.383Z,90.40
2018-07-21T12:19:21.892Z,90.20
2018-07-21T12:21:52.000Z,90.30
2018-07-21T12:24:22.218Z,90.40
2018-07-21T12:26:50.744Z,90.40
2018-07-21T12:29:19.339Z,90.40
2018-07-21T12:31:47.972Z,90.40
2018-07-21T12:34:16.609Z,90.70
2018-07-21T12:36:45.338Z,90.30
2018-07-21T12:39:13.858Z,89.80
2018-07-21T12:41:42.449Z,89.60
2018-07-21T12:44:12.011Z,90.30
2018-07-21T12:46:41.087Z,89.70
2018-07-21T12:49:09.775Z,89.70
2018-07-21T12:51:38.349Z,89.20
2018-07-21T12:54:06.911Z,89.40
2018-07-21T12:56:35.389Z,89.50
2018-07-21T12:59:37.854Z,89.80
2018-07-21T13:02:06.355Z,89.80
2018-07-21T13:04:36.054Z,89.80
2018-07-21T13:07:04.539Z,89.00
2018-07-21T13:09:33.037Z,89.00
2018-07-21T13:12:01.495Z,88.90
2018-07-21T13:14:30.049Z,88.80
2018-07-21T13:16:58.516Z,88.90
2018-07-21T13:19:27.007Z,88.30
2018-07-21T13:21:55.479Z,87.60
2018-07-21T13:24:23.961Z,88.30
2018-07-21T13:26:52.811Z,88.50
2018-07-21T13:29:21.294Z,88.80
2018-07-21T13:31:49.757Z,89.00
2018-07-21T13:34:18.296Z,89.00
2018-07-21T13:36:47.083Z,89.00
2018-07-21T13:39:15.588Z,88.60
2018-07-21T13:41:44.373Z,88.70
2018-07-21T13:44:12.891Z,89.10
2018-07-21T13:46:41.352Z,88.60
2018-07-21T13:49:09.846Z,88.50
2018-07-21T13:51:38.335Z,88.20
2018-07-21T13:54:06.845Z,87.90
2018-07-21T13:59:03.856Z,88.40
2018-07-21T14:01:32.323Z,88.30
2018-07-21T14:04:00.814Z,88.30
2018-07-21T14:06:29.268Z,87.30
2018-07-21T14:08:57.749Z,87.60
2018-07-21T14:11:26.199Z,88.00
2018-07-21T14:13:54.697Z,87.90
2018-07-21T14:16:23.168Z,87.80
2018-07-21T14:18:51.646Z,87.80
2018-07-21T14:21:20.123Z,87.60
2018-07-21T14:23:48.667Z,87.90
2018-07-21T14:26:17.599Z,88.00
2018-07-21T14:28:46.075Z,87.00
2018-07-21T14:31:14.578Z,87.30
2018-07-21T14:33:43.277Z,87.60
2018-07-21T14:36:11.775Z,87.60
2018-07-21T14:38:40.428Z,86.80
2018-07-21T14:41:08.900Z,86.80
2018-07-21T14:43:37.382Z,87.20
2018-07-21T14:46:05.903Z,87.30
2018-07-21T14:48:34.424Z,87.10
2018-07-21T14:51:03.043Z,87.40
2018-07-21T14:53:31.506Z,87.30
2018-07-21T14:55:59.955Z,87.70
2018-07-21T14:58:28.444Z,88.30
2018-07-21T15:00:56.916Z,88.60
2018-07-21T15:03:25.399Z,88.40
2018-07-21T15:05:53.837Z,88.40
2018-07-21T15:08:22.331Z,87.90
2018-07-21T15:10:50.805Z,88.10
2018-07-21T15:13:19.318Z,88.40
2018-07-21T15:15:47.821Z,88.00
2018-07-21T15:18:16.406Z,87.90
2018-07-21T15:20:44.983Z,87.90
2018-07-21T15:23:13.480Z,87.90
2018-07-21T15:25:42.244Z,88.00
2018-07-21T15:30:38.890Z,88.00
2018-07-21T15:33:07.463Z,88.00
2018-07-21T15:35:35.943Z,87.90
2018-07-21T15:38:04.381Z,88.30
2018-07-21T15:40:32.867Z,88.40
2018-07-21T15:43:01.315Z,88.30
2018-07-21T15:45:30.140Z,88.30
2018-07-21T15:47:58.604Z,88.30
2018-07-21T15:50:27.104Z,88.00
2018-07-21T15:52:55.561Z,87.90
2018-07-21T15:55:24.055Z,87.70
2018-07-21T15:57:52.680Z,87.60
2018-07-21T16:00:21.163Z,88.20
2018-07-21T16:02:49.628Z,87.70
2018-07-21T16:05:18.679Z,87.30
2018-07-21T16:07:47.177Z,87.50
2018-07-21T16:10:15.676Z,87.80
2018-07-21T16:12:44.448Z,87.60
2018-07-21T16:15:13.368Z,88.20
2018-07-21T16:20:10.137Z,87.80
2018-07-21T16:22:38.953Z,87.20
2018-07-21T16:25:09.615Z,87.50
2018-07-21T16:27:38.068Z,87.20
2018-07-21T16:30:06.555Z,87.00
2018-07-21T16:32:35.107Z,86.40
2018-07-21T16:35:03.634Z,86.20
2018-07-21T16:37:32.431Z,86.40
2018-07-21T16:40:00.912Z,86.40
2018-07-21T16:42:29.360Z,85.60
2018-07-21T16:44:57.831Z,85.80
2018-07-21T16:47:26.274Z,85.70
2018-07-21T16:49:54.738Z,86.00
2018-07-21T16:52:23.171Z,85.90
2018-07-21T16:54:51.647Z,85.40
2018-07-21T16:59:48.254Z,85.50
2018-07-21T17:02:16.705Z,85.30
2018-07-21T17:07:13.491Z,84.70
2018-07-21T17:09:41.956Z,85.50
2018-07-21T17:12:10.456Z,85.50
2018-07-21T17:14:38.988Z,85.30
2018-07-21T17:17:07.488Z,85.10
2018-07-21T17:19:35.976Z,85.40
2018-07-21T17:22:05.115Z,85.60
2018-07-21T17:24:33.591Z,85.50
2018-07-21T17:27:02.032Z,85.50
2018-07-21T17:29:30.728Z,86.10
2018-07-21T17:31:59.352Z,85.60
2018-07-21T17:34:27.878Z,85.50
2018-07-21T17:36:56.507Z,85.60
2018-07-21T17:39:25.049Z,85.80
2018-07-21T17:41:53.634Z,85.80
2018-07-21T17:44:22.336Z,85.60
2018-07-21T17:46:50.795Z,85.80
2018-07-21T17:49:19.457Z,85.70
2018-07-21T17:51:47.944Z,86.00
2018-07-21T17:54:16.408Z,85.80
2018-07-21T17:56:44.887Z,85.70
2018-07-21T17:59:13.320Z,85.70
2018-07-21T18:01:41.814Z,85.80
2018-07-21T18:04:10.287Z,85.80
2018-07-21T18:06:38.926Z,85.90
2018-07-21T18:09:08.818Z,85.90
2018-07-21T18:11:37.291Z,86.00
2018-07-21T18:14:05.783Z,86.70
2018-07-21T18:16:34.259Z,86.80
2018-07-21T18:19:02.712Z,87.10
2018-07-21T18:21:31.179Z,87.30
2018-07-21T18:23:59.883Z,87.40
2018-07-21T18:26:28.363Z,87.70
2018-07-21T18:28:56.812Z,88.20
2018-07-21T18:31:25.276Z,88.40
2018-07-21T18:33:54.107Z,89.00
2018-07-21T18:36:22.588Z,89.00
2018-07-21T18:38:51.032Z,89.80
2018-07-21T18:41:19.492Z,89.60
2018-07-21T18:43:47.950Z,90.10
2018-07-21T18:46:16.548Z,90.20
2018-07-21T18:48:45.045Z,90.60
2018-07-21T18:51:13.490Z,90.70
2018-07-21T18:53:41.983Z,91.00
2018-07-21T18:56:10.756Z,91.20
2018-07-21T18:58:39.825Z,91.20
2018-07-21T19:01:09.280Z,91.20
2018-07-21T19:03:37.851Z,91.60
2018-07-21T19:06:07.655Z,91.30
2018-07-21T19:08:49.339Z,91.40
2018-07-21T19:11:18.238Z,91.40
2018-07-21T19:13:47.201Z,91.50
2018-07-21T19:16:21.785Z,91.50
2018-07-21T19:18:58.966Z,91.50
2018-07-21T19:21:34.099Z,91.50
2018-07-21T19:24:08.740Z,91.40
2018-07-21T19:26:44.781Z,91.40
2018-07-21T19:29:19.159Z,91.30
2018-07-21T19:31:53.990Z,91.20
2018-07-21T19:34:23.978Z,91.20
2018-07-21T19:36:53.251Z,91.10
2018-07-21T19:39:21.952Z,91.10
2018-07-21T19:41:55.772Z,91.00
2018-07-21T19:44:24.433Z,91.00
2018-07-21T19:46:55.029Z,91.00
2018-07-21T19:49:23.675Z,91.00
2018-07-21T19:51:52.951Z,90.90
2018-07-21T19:54:22.537Z,90.90
2018-07-21T19:56:51.065Z,90.90
2018-07-21T19:59:19.713Z,90.80
2018-07-21T20:01:48.290Z,90.80
2018-07-21T20:04:16.921Z,90.80
2018-07-21T20:06:45.536Z,90.70
2018-07-21T20:09:14.049Z,90.70
2018-07-21T20:11:42.680Z,90.80
2018-07-21T20:14:11.207Z,90.80
2018-07-21T20:16:39.782Z,90.90
2018-07-21T20:19:08.508Z,90.90
2018-07-21T20:21:38.298Z,90.90
2018-07-21T20:24:06.982Z,90.90
2018-07-21T20:26:36.163Z,90.90
2018-07-21T20:29:04.689Z,90.90
2018-07-21T20:31:33.719Z,91.00
2018-07-21T20:34:02.189Z,90.90
2018-07-21T20:36:31.604Z,90.90
2018-07-21T20:39:00.271Z,90.80
2018-07-21T20:41:28.872Z,90.90
2018-07-21T20:43:57.439Z,90.80
2018-07-21T20:46:26.049Z,90.80
2018-07-21T20:48:54.487Z,90.70
2018-07-21T20:51:25.661Z,90.60
2018-07-21T20:53:54.368Z,90.60
2018-07-21T20:56:23.666Z,90.60
2018-07-21T20:58:52.410Z,90.60
2018-07-21T21:01:21.205Z,90.80
2018-07-21T21:03:49.722Z,90.80
2018-07-21T21:06:18.865Z,91.00
2018-07-21T21:08:47.585Z,91.20
2018-07-21T21:11:16.280Z,91.30
2018-07-21T21:13:45.090Z,91.40
2018-07-21T21:16:13.600Z,91.40
2018-07-21T21:18:42.162Z,91.60
2018-07-21T21:21:10.655Z,91.60
2018-07-21T21:23:39.162Z,91.60
2018-07-21T21:26:07.644Z,92.00
2018-07-21T21:28:36.164Z,91.70
2018-07-21T21:31:04.678Z,91.60
2018-07-21T21:33:33.355Z,91.60
2018-07-21T21:36:01.804Z,91.70
2018-07-21T21:38:30.315Z,91.70
2018-07-21T21:40:58.767Z,91.70
2018-07-21T21:43:27.246Z,91.70
2018-07-21T21:45:55.736Z,91.70
2018-07-21T21:48:24.381Z,91.60
2018-07-21T21:50:53.027Z,91.70
2018-07-21T21:53:21.583Z,91.60
2018-07-21T21:55:50.097Z,91.60
2018-07-21T22:01:04.432Z,91.80
2018-07-21T22:03:33.154Z,91.80
2018-07-21T22:06:01.705Z,91.90
2018-07-21T22:08:31.395Z,92.00
2018-07-21T22:11:00.136Z,92.00
2018-07-21T22:13:29.334Z,92.20
2018-07-21T22:15:58.247Z,92.20
2018-07-21T22:18:27.258Z,92.30
2018-07-21T22:20:55.941Z,92.40
2018-07-21T22:23:24.509Z,92.40
2018-07-21T22:25:53.005Z,92.50
2018-07-21T22:28:21.484Z,92.50
2018-07-21T22:30:50.035Z,92.50
2018-07-21T22:33:18.555Z,92.60
2018-07-21T22:35:47.088Z,92.60
2018-07-21T22:38:15.558Z,93.00
2018-07-21T22:40:44.052Z,92.70
2018-07-21T22:43:12.532Z,92.70
2018-07-21T22:45:41.016Z,92.70
2018-07-21T22:48:09.476Z,92.70
2018-07-21T22:50:37.987Z,92.70
2018-07-21T22:53:06.431Z,92.70
2018-07-21T22:55:34.894Z,92.70
2018-07-21T22:58:03.453Z,92.70
2018-07-21T23:00:31.975Z,92.80
2018-07-21T23:03:00.505Z,92.70
2018-07-21T23:05:28.979Z,92.80
2018-07-21T23:07:57.485Z,92.80
2018-07-21T23:10:25.967Z,92.70
2018-07-21T23:12:54.551Z,92.70
2018-07-21T23:15:23.242Z,92.60
2018-07-21T23:17:51.764Z,92.60
2018-07-21T23:20:20.239Z,92.60
2018-07-21T23:25:16.875Z,92.70
2018-07-21T23:27:45.364Z,92.70
2018-07-21T23:30:13.829Z,92.60
2018-07-21T23:32:42.359Z,92.80
2018-07-21T23:35:10.820Z,92.50
2018-07-21T23:37:39.323Z,92.60
2018-07-21T23:40:08.198Z,92.60
2018-07-21T23:42:36.709Z,92.70
2018-07-21T23:45:05.593Z,92.60
2018-07-21T23:47:34.422Z,92.60
2018-07-21T23:50:02.919Z,92.70
2018-07-21T23:54:59.626Z,92.70
2018-07-21T23:57:28.151Z,92.70
2018-07-21T23:59:56.615Z,92.60
